sensor_id;sensor_type;location;lat;lon;timestamp;temperature;humidity
69208;SHT31;56321;47.662;8.878;2023-04-06T00:00:23;4.63;53.87
69208;SHT31;56321;47.662;8.878;2023-04-06T00:02:48;4.65;53.72
69208;SHT31;56321;47.662;8.878;2023-04-06T00:05:13;4.61;54.18
69208;SHT31;56321;47.662;8.878;2023-04-06T00:07:39;4.58;54.24
69208;SHT31;56321;47.662;8.878;2023-04-06T00:10:04;4.56;54.25
69208;SHT31;56321;47.662;8.878;2023-04-06T00:12:30;4.55;54.05
69208;SHT31;56321;47.662;8.878;2023-04-06T00:14:55;4.52;54.10
69208;SHT31;56321;47.662;8.878;2023-04-06T00:17:21;4.51;54.24
69208;SHT31;56321;47.662;8.878;2023-04-06T00:19:46;4.45;54.44
69208;SHT31;56321;47.662;8.878;2023-04-06T00:22:11;4.45;54.48
69208;SHT31;56321;47.662;8.878;2023-04-06T00:24:37;4.41;54.60
69208;SHT31;56321;47.662;8.878;2023-04-06T00:27:02;4.37;54.70
69208;SHT31;56321;47.662;8.878;2023-04-06T00:29:28;4.34;54.68
69208;SHT31;56321;47.662;8.878;2023-04-06T00:31:53;4.30;54.64
69208;SHT31;56321;47.662;8.878;2023-04-06T00:34:18;4.27;54.91
69208;SHT31;56321;47.662;8.878;2023-04-06T00:36:44;4.27;54.84
69208;SHT31;56321;47.662;8.878;2023-04-06T00:39:10;4.22;55.15
69208;SHT31;56321;47.662;8.878;2023-04-06T00:41:35;4.21;55.07
69208;SHT31;56321;47.662;8.878;2023-04-06T00:44:00;4.18;54.73
69208;SHT31;56321;47.662;8.878;2023-04-06T00:46:26;4.15;54.87
69208;SHT31;56321;47.662;8.878;2023-04-06T00:48:51;4.10;55.05
69208;SHT31;56321;47.662;8.878;2023-04-06T00:51:17;4.13;54.98
69208;SHT31;56321;47.662;8.878;2023-04-06T00:53:42;4.10;54.87
69208;SHT31;56321;47.662;8.878;2023-04-06T00:56:07;4.07;55.29
69208;SHT31;56321;47.662;8.878;2023-04-06T00:58:35;4.03;55.45
69208;SHT31;56321;47.662;8.878;2023-04-06T01:01:03;4.01;55.49
69208;SHT31;56321;47.662;8.878;2023-04-06T01:03:29;3.98;55.35
69208;SHT31;56321;47.662;8.878;2023-04-06T01:05:54;3.91;55.31
69208;SHT31;56321;47.662;8.878;2023-04-06T01:08:23;3.87;55.45
69208;SHT31;56321;47.662;8.878;2023-04-06T01:10:49;3.80;55.85
69208;SHT31;56321;47.662;8.878;2023-04-06T01:13:14;3.73;55.72
69208;SHT31;56321;47.662;8.878;2023-04-06T01:15:41;3.74;55.79
69208;SHT31;56321;47.662;8.878;2023-04-06T01:18:08;3.66;56.21
69208;SHT31;56321;47.662;8.878;2023-04-06T01:20:35;3.63;56.54
69208;SHT31;56321;47.662;8.878;2023-04-06T01:23:01;3.62;56.90
69208;SHT31;56321;47.662;8.878;2023-04-06T01:25:26;3.59;56.96
69208;SHT31;56321;47.662;8.878;2023-04-06T01:27:51;3.55;57.12
69208;SHT31;56321;47.662;8.878;2023-04-06T01:30:17;3.49;57.33
69208;SHT31;56321;47.662;8.878;2023-04-06T01:32:43;3.51;57.30
69208;SHT31;56321;47.662;8.878;2023-04-06T01:35:09;3.48;57.21
69208;SHT31;56321;47.662;8.878;2023-04-06T01:37:34;3.46;57.42
69208;SHT31;56321;47.662;8.878;2023-04-06T01:40:00;3.43;57.50
69208;SHT31;56321;47.662;8.878;2023-04-06T01:42:26;3.42;57.75
69208;SHT31;56321;47.662;8.878;2023-04-06T01:44:51;3.42;57.93
69208;SHT31;56321;47.662;8.878;2023-04-06T01:47:17;3.45;58.14
69208;SHT31;56321;47.662;8.878;2023-04-06T01:49:42;3.42;58.02
69208;SHT31;56321;47.662;8.878;2023-04-06T01:52:07;3.36;58.23
69208;SHT31;56321;47.662;8.878;2023-04-06T01:54:33;3.35;57.99
69208;SHT31;56321;47.662;8.878;2023-04-06T01:56:58;3.32;57.81
69208;SHT31;56321;47.662;8.878;2023-04-06T01:59:24;3.29;57.88
69208;SHT31;56321;47.662;8.878;2023-04-06T02:01:49;3.25;57.92
69208;SHT31;56321;47.662;8.878;2023-04-06T02:04:15;3.22;58.01
69208;SHT31;56321;47.662;8.878;2023-04-06T02:06:40;3.24;57.97
69208;SHT31;56321;47.662;8.878;2023-04-06T02:09:06;3.17;58.00
69208;SHT31;56321;47.662;8.878;2023-04-06T02:11:31;3.15;57.92
69208;SHT31;56321;47.662;8.878;2023-04-06T02:13:57;3.11;57.96
69208;SHT31;56321;47.662;8.878;2023-04-06T02:16:22;3.09;58.11
69208;SHT31;56321;47.662;8.878;2023-04-06T02:18:49;3.04;57.91
69208;SHT31;56321;47.662;8.878;2023-04-06T02:21:14;3.03;57.90
69208;SHT31;56321;47.662;8.878;2023-04-06T02:23:44;3.04;57.94
69208;SHT31;56321;47.662;8.878;2023-04-06T02:26:10;2.98;58.00
69208;SHT31;56321;47.662;8.878;2023-04-06T02:28:35;2.96;57.98
69208;SHT31;56321;47.662;8.878;2023-04-06T02:31:00;2.93;58.00
69208;SHT31;56321;47.662;8.878;2023-04-06T02:33:26;2.90;58.18
69208;SHT31;56321;47.662;8.878;2023-04-06T02:35:51;2.88;58.22
69208;SHT31;56321;47.662;8.878;2023-04-06T02:38:16;2.87;58.40
69208;SHT31;56321;47.662;8.878;2023-04-06T02:40:42;2.87;58.32
69208;SHT31;56321;47.662;8.878;2023-04-06T02:43:07;2.83;58.43
69208;SHT31;56321;47.662;8.878;2023-04-06T02:45:33;2.79;58.13
69208;SHT31;56321;47.662;8.878;2023-04-06T02:47:58;2.81;58.12
69208;SHT31;56321;47.662;8.878;2023-04-06T02:50:23;2.77;58.26
69208;SHT31;56321;47.662;8.878;2023-04-06T02:52:49;2.73;58.42
69208;SHT31;56321;47.662;8.878;2023-04-06T02:55:14;2.73;58.46
69208;SHT31;56321;47.662;8.878;2023-04-06T02:57:40;2.72;58.29
69208;SHT31;56321;47.662;8.878;2023-04-06T03:00:06;2.72;58.26
69208;SHT31;56321;47.662;8.878;2023-04-06T03:02:31;2.72;58.26
69208;SHT31;56321;47.662;8.878;2023-04-06T03:04:57;2.72;58.55
69208;SHT31;56321;47.662;8.878;2023-04-06T03:07:22;2.70;58.57
69208;SHT31;56321;47.662;8.878;2023-04-06T03:09:47;2.64;58.67
69208;SHT31;56321;47.662;8.878;2023-04-06T03:12:13;2.67;58.63
69208;SHT31;56321;47.662;8.878;2023-04-06T03:14:38;2.61;58.84
69208;SHT31;56321;47.662;8.878;2023-04-06T03:17:03;2.64;58.94
69208;SHT31;56321;47.662;8.878;2023-04-06T03:19:29;2.63;58.89
69208;SHT31;56321;47.662;8.878;2023-04-06T03:21:54;2.64;58.94
69208;SHT31;56321;47.662;8.878;2023-04-06T03:24:20;2.63;59.18
69208;SHT31;56321;47.662;8.878;2023-04-06T03:26:45;2.61;59.20
69208;SHT31;56321;47.662;8.878;2023-04-06T03:29:10;2.60;59.30
69208;SHT31;56321;47.662;8.878;2023-04-06T03:31:36;2.57;59.46
69208;SHT31;56321;47.662;8.878;2023-04-06T03:34:01;2.56;59.47
69208;SHT31;56321;47.662;8.878;2023-04-06T03:36:26;2.52;59.42
69208;SHT31;56321;47.662;8.878;2023-04-06T03:38:52;2.52;59.51
69208;SHT31;56321;47.662;8.878;2023-04-06T03:41:20;2.50;59.64
69208;SHT31;56321;47.662;8.878;2023-04-06T03:43:46;2.50;59.78
69208;SHT31;56321;47.662;8.878;2023-04-06T03:46:11;2.48;59.60
69208;SHT31;56321;47.662;8.878;2023-04-06T03:48:37;2.48;60.02
69208;SHT31;56321;47.662;8.878;2023-04-06T03:51:02;2.45;60.10
69208;SHT31;56321;47.662;8.878;2023-04-06T03:53:28;2.48;60.24
69208;SHT31;56321;47.662;8.878;2023-04-06T03:55:53;2.43;60.25
69208;SHT31;56321;47.662;8.878;2023-04-06T03:58:18;2.40;60.43
69208;SHT31;56321;47.662;8.878;2023-04-06T04:00:44;2.39;60.62
69208;SHT31;56321;47.662;8.878;2023-04-06T04:03:09;2.40;60.66
69208;SHT31;56321;47.662;8.878;2023-04-06T04:05:35;2.38;60.54
69208;SHT31;56321;47.662;8.878;2023-04-06T04:08:00;2.38;60.68
69208;SHT31;56321;47.662;8.878;2023-04-06T04:10:26;2.32;60.75
69208;SHT31;56321;47.662;8.878;2023-04-06T04:12:51;2.31;60.52
69208;SHT31;56321;47.662;8.878;2023-04-06T04:15:16;2.28;60.56
69208;SHT31;56321;47.662;8.878;2023-04-06T04:17:42;2.25;60.45
69208;SHT31;56321;47.662;8.878;2023-04-06T04:20:12;2.26;60.49
69208;SHT31;56321;47.662;8.878;2023-04-06T04:22:37;2.21;60.47
69208;SHT31;56321;47.662;8.878;2023-04-06T04:25:02;2.19;60.40
69208;SHT31;56321;47.662;8.878;2023-04-06T04:27:28;2.17;60.25
69208;SHT31;56321;47.662;8.878;2023-04-06T04:29:53;2.12;60.23
69208;SHT31;56321;47.662;8.878;2023-04-06T04:32:18;2.08;60.42
69208;SHT31;56321;47.662;8.878;2023-04-06T04:34:44;2.07;60.34
69208;SHT31;56321;47.662;8.878;2023-04-06T04:37:09;2.07;60.35
69208;SHT31;56321;47.662;8.878;2023-04-06T04:39:35;2.07;60.38
69208;SHT31;56321;47.662;8.878;2023-04-06T04:42:00;2.08;60.30
69208;SHT31;56321;47.662;8.878;2023-04-06T04:44:25;2.07;60.45
69208;SHT31;56321;47.662;8.878;2023-04-06T04:46:51;2.08;60.58
69208;SHT31;56321;47.662;8.878;2023-04-06T04:49:16;2.07;60.49
69208;SHT31;56321;47.662;8.878;2023-04-06T04:51:42;2.02;60.59
69208;SHT31;56321;47.662;8.878;2023-04-06T04:54:07;2.01;60.68
69208;SHT31;56321;47.662;8.878;2023-04-06T04:56:33;2.04;60.80
69208;SHT31;56321;47.662;8.878;2023-04-06T04:58:58;2.01;60.83
69208;SHT31;56321;47.662;8.878;2023-04-06T05:01:23;2.05;60.75
69208;SHT31;56321;47.662;8.878;2023-04-06T05:03:49;2.04;60.73
69208;SHT31;56321;47.662;8.878;2023-04-06T05:06:15;2.02;60.87
69208;SHT31;56321;47.662;8.878;2023-04-06T05:08:41;2.04;60.89
69208;SHT31;56321;47.662;8.878;2023-04-06T05:11:06;2.02;60.80
69208;SHT31;56321;47.662;8.878;2023-04-06T05:13:32;2.05;60.82
69208;SHT31;56321;47.662;8.878;2023-04-06T05:15:57;2.00;60.80
69208;SHT31;56321;47.662;8.878;2023-04-06T05:18:22;2.02;60.82
69208;SHT31;56321;47.662;8.878;2023-04-06T05:20:48;2.02;60.71
69208;SHT31;56321;47.662;8.878;2023-04-06T05:23:13;2.02;60.74
69208;SHT31;56321;47.662;8.878;2023-04-06T05:25:39;2.04;60.78
69208;SHT31;56321;47.662;8.878;2023-04-06T05:28:04;2.05;60.80
69208;SHT31;56321;47.662;8.878;2023-04-06T05:30:29;2.04;60.83
69208;SHT31;56321;47.662;8.878;2023-04-06T05:32:55;2.07;61.05
69208;SHT31;56321;47.662;8.878;2023-04-06T05:35:20;2.11;60.99
69208;SHT31;56321;47.662;8.878;2023-04-06T05:37:46;2.12;61.10
69208;SHT31;56321;47.662;8.878;2023-04-06T05:40:11;2.12;61.11
69208;SHT31;56321;47.662;8.878;2023-04-06T05:42:41;2.18;61.08
69208;SHT31;56321;47.662;8.878;2023-04-06T05:45:08;2.21;61.11
69208;SHT31;56321;47.662;8.878;2023-04-06T05:47:35;2.24;61.09
69208;SHT31;56321;47.662;8.878;2023-04-06T05:50:01;2.28;61.34
69208;SHT31;56321;47.662;8.878;2023-04-06T05:52:26;2.33;61.63
69208;SHT31;56321;47.662;8.878;2023-04-06T05:54:52;2.39;61.62
69208;SHT31;56321;47.662;8.878;2023-04-06T05:57:17;2.40;61.93
69208;SHT31;56321;47.662;8.878;2023-04-06T05:59:43;2.49;61.89
69208;SHT31;56321;47.662;8.878;2023-04-06T06:02:08;2.52;62.13
69208;SHT31;56321;47.662;8.878;2023-04-06T06:04:34;2.56;62.24
69208;SHT31;56321;47.662;8.878;2023-04-06T06:06:59;2.61;62.06
69208;SHT31;56321;47.662;8.878;2023-04-06T06:09:25;2.66;61.87
69208;SHT31;56321;47.662;8.878;2023-04-06T06:11:51;2.70;61.90
69208;SHT31;56321;47.662;8.878;2023-04-06T06:14:16;2.76;61.85
69208;SHT31;56321;47.662;8.878;2023-04-06T06:16:42;2.79;62.11
69208;SHT31;56321;47.662;8.878;2023-04-06T06:19:07;2.83;61.94
69208;SHT31;56321;47.662;8.878;2023-04-06T06:21:32;2.91;62.00
69208;SHT31;56321;47.662;8.878;2023-04-06T06:23:58;2.98;61.89
69208;SHT31;56321;47.662;8.878;2023-04-06T06:26:23;3.01;61.86
69208;SHT31;56321;47.662;8.878;2023-04-06T06:28:48;3.05;61.66
69208;SHT31;56321;47.662;8.878;2023-04-06T06:31:14;3.14;61.63
69208;SHT31;56321;47.662;8.878;2023-04-06T06:33:39;3.18;61.52
69208;SHT31;56321;47.662;8.878;2023-04-06T06:36:05;3.25;61.71
69208;SHT31;56321;47.662;8.878;2023-04-06T06:38:30;3.32;61.75
69208;SHT31;56321;47.662;8.878;2023-04-06T06:40:56;3.36;61.52
69208;SHT31;56321;47.662;8.878;2023-04-06T06:43:21;3.39;61.02
69208;SHT31;56321;47.662;8.878;2023-04-06T06:45:46;3.48;61.09
69208;SHT31;56321;47.662;8.878;2023-04-06T06:48:12;3.52;61.16
69208;SHT31;56321;47.662;8.878;2023-04-06T06:50:37;3.62;61.16
69208;SHT31;56321;47.662;8.878;2023-04-06T06:53:03;3.69;60.56
69208;SHT31;56321;47.662;8.878;2023-04-06T06:55:28;3.73;60.51
69208;SHT31;56321;47.662;8.878;2023-04-06T06:57:54;3.82;60.46
69208;SHT31;56321;47.662;8.878;2023-04-06T07:00:19;3.89;60.62
69208;SHT31;56321;47.662;8.878;2023-04-06T07:02:48;4.00;60.87
69208;SHT31;56321;47.662;8.878;2023-04-06T07:05:14;4.08;60.63
69208;SHT31;56321;47.662;8.878;2023-04-06T07:07:40;4.18;60.45
69208;SHT31;56321;47.662;8.878;2023-04-06T07:10:08;4.30;60.36
69208;SHT31;56321;47.662;8.878;2023-04-06T07:12:33;4.37;60.37
69208;SHT31;56321;47.662;8.878;2023-04-06T07:14:59;4.44;60.24
69208;SHT31;56321;47.662;8.878;2023-04-06T07:17:24;4.59;60.04
69208;SHT31;56321;47.662;8.878;2023-04-06T07:19:50;4.63;59.93
69208;SHT31;56321;47.662;8.878;2023-04-06T07:22:15;4.77;59.08
69208;SHT31;56321;47.662;8.878;2023-04-06T07:24:40;4.84;59.05
69208;SHT31;56321;47.662;8.878;2023-04-06T07:27:06;4.94;59.20
69208;SHT31;56321;47.662;8.878;2023-04-06T07:29:32;5.07;59.21
69208;SHT31;56321;47.662;8.878;2023-04-06T07:31:57;5.21;59.37
69208;SHT31;56321;47.662;8.878;2023-04-06T07:34:23;5.32;58.75
69208;SHT31;56321;47.662;8.878;2023-04-06T07:36:48;5.44;58.95
69208;SHT31;56321;47.662;8.878;2023-04-06T07:39:14;5.56;58.43
69208;SHT31;56321;47.662;8.878;2023-04-06T07:41:39;5.72;58.36
69208;SHT31;56321;47.662;8.878;2023-04-06T07:44:05;5.87;58.32
69208;SHT31;56321;47.662;8.878;2023-04-06T07:46:30;6.07;58.30
69208;SHT31;56321;47.662;8.878;2023-04-06T07:48:56;6.24;57.65
69208;SHT31;56321;47.662;8.878;2023-04-06T07:51:22;6.40;57.07
69208;SHT31;56321;47.662;8.878;2023-04-06T07:53:47;6.52;56.49
69208;SHT31;56321;47.662;8.878;2023-04-06T07:56:13;6.64;56.64
69208;SHT31;56321;47.662;8.878;2023-04-06T07:58:40;6.78;56.61
69208;SHT31;56321;47.662;8.878;2023-04-06T08:01:05;6.93;56.39
69208;SHT31;56321;47.662;8.878;2023-04-06T08:03:33;7.11;56.19
69208;SHT31;56321;47.662;8.878;2023-04-06T08:05:58;7.26;55.54
69208;SHT31;56321;47.662;8.878;2023-04-06T08:08:24;7.38;55.86
69208;SHT31;56321;47.662;8.878;2023-04-06T08:10:49;7.58;55.81
69208;SHT31;56321;47.662;8.878;2023-04-06T08:13:15;7.79;55.50
69208;SHT31;56321;47.662;8.878;2023-04-06T08:15:41;8.00;54.53
69208;SHT31;56321;47.662;8.878;2023-04-06T08:18:08;8.19;54.22
69208;SHT31;56321;47.662;8.878;2023-04-06T08:20:34;8.38;53.31
69208;SHT31;56321;47.662;8.878;2023-04-06T08:22:59;8.48;52.98
69208;SHT31;56321;47.662;8.878;2023-04-06T08:25:25;8.61;53.51
69208;SHT31;56321;47.662;8.878;2023-04-06T08:27:51;8.88;52.92
69208;SHT31;56321;47.662;8.878;2023-04-06T08:30:16;9.11;52.20
69208;SHT31;56321;47.662;8.878;2023-04-06T08:32:44;9.32;51.59
69208;SHT31;56321;47.662;8.878;2023-04-06T08:35:09;9.52;51.78
69208;SHT31;56321;47.662;8.878;2023-04-06T08:37:35;9.81;50.97
69208;SHT31;56321;47.662;8.878;2023-04-06T08:40:00;10.02;50.01
69208;SHT31;56321;47.662;8.878;2023-04-06T08:42:26;10.19;48.47
69208;SHT31;56321;47.662;8.878;2023-04-06T08:44:54;10.32;48.29
69208;SHT31;56321;47.662;8.878;2023-04-06T08:47:20;10.43;48.09
69208;SHT31;56321;47.662;8.878;2023-04-06T08:49:46;10.57;48.09
69208;SHT31;56321;47.662;8.878;2023-04-06T08:52:12;10.74;47.37
69208;SHT31;56321;47.662;8.878;2023-04-06T08:54:38;10.90;46.60
69208;SHT31;56321;47.662;8.878;2023-04-06T08:57:05;11.08;45.98
69208;SHT31;56321;47.662;8.878;2023-04-06T08:59:31;11.26;45.23
69208;SHT31;56321;47.662;8.878;2023-04-06T09:01:57;11.47;44.82
69208;SHT31;56321;47.662;8.878;2023-04-06T09:04:23;11.69;44.19
69208;SHT31;56321;47.662;8.878;2023-04-06T09:06:48;11.88;43.35
69208;SHT31;56321;47.662;8.878;2023-04-06T09:09:15;12.04;43.40
69208;SHT31;56321;47.662;8.878;2023-04-06T09:11:48;12.27;42.10
69208;SHT31;56321;47.662;8.878;2023-04-06T09:14:15;12.42;42.56
69208;SHT31;56321;47.662;8.878;2023-04-06T09:16:42;12.63;42.33
69208;SHT31;56321;47.662;8.878;2023-04-06T09:19:08;12.87;41.25
69208;SHT31;56321;47.662;8.878;2023-04-06T09:21:34;13.04;40.28
69208;SHT31;56321;47.662;8.878;2023-04-06T09:24:00;13.21;40.69
69208;SHT31;56321;47.662;8.878;2023-04-06T09:26:26;13.51;40.30
69208;SHT31;56321;47.662;8.878;2023-04-06T09:28:57;13.85;39.41
69208;SHT31;56321;47.662;8.878;2023-04-06T09:31:28;14.12;38.15
69208;SHT31;56321;47.662;8.878;2023-04-06T09:33:54;14.38;38.47
69208;SHT31;56321;47.662;8.878;2023-04-06T09:36:29;14.63;36.32
69208;SHT31;56321;47.662;8.878;2023-04-06T09:39:02;14.88;36.65
69208;SHT31;56321;47.662;8.878;2023-04-06T09:41:31;15.06;36.96
69208;SHT31;56321;47.662;8.878;2023-04-06T09:44:10;15.32;36.21
69208;SHT31;56321;47.662;8.878;2023-04-06T09:46:43;15.53;35.05
69208;SHT31;56321;47.662;8.878;2023-04-06T09:49:10;15.71;35.89
69208;SHT31;56321;47.662;8.878;2023-04-06T09:51:41;15.85;34.80
69208;SHT31;56321;47.662;8.878;2023-04-06T09:54:07;15.98;35.18
69208;SHT31;56321;47.662;8.878;2023-04-06T09:56:46;16.19;33.06
69208;SHT31;56321;47.662;8.878;2023-04-06T09:59:23;16.40;31.38
69208;SHT31;56321;47.662;8.878;2023-04-06T10:01:51;16.54;33.35
69208;SHT31;56321;47.662;8.878;2023-04-06T10:04:34;16.74;31.70
69208;SHT31;56321;47.662;8.878;2023-04-06T10:07:02;17.04;33.04
69208;SHT31;56321;47.662;8.878;2023-04-06T10:09:29;17.31;32.20
69208;SHT31;56321;47.662;8.878;2023-04-06T10:12:03;17.50;31.96
69208;SHT31;56321;47.662;8.878;2023-04-06T10:14:29;17.74;32.35
69208;SHT31;56321;47.662;8.878;2023-04-06T10:16:57;18.11;31.36
69208;SHT31;56321;47.662;8.878;2023-04-06T10:19:27;18.46;30.92
69208;SHT31;56321;47.662;8.878;2023-04-06T10:21:57;18.82;30.38
69208;SHT31;56321;47.662;8.878;2023-04-06T10:24:23;19.17;30.19
69208;SHT31;56321;47.662;8.878;2023-04-06T10:27:00;19.58;27.51
69208;SHT31;56321;47.662;8.878;2023-04-06T10:29:26;20.06;29.79
69208;SHT31;56321;47.662;8.878;2023-04-06T10:31:52;20.57;29.05
69208;SHT31;56321;47.662;8.878;2023-04-06T10:34:17;21.06;29.32
69208;SHT31;56321;47.662;8.878;2023-04-06T10:36:43;21.50;27.39
69208;SHT31;56321;47.662;8.878;2023-04-06T10:39:08;21.89;26.83
69208;SHT31;56321;47.662;8.878;2023-04-06T10:41:41;22.23;24.12
69208;SHT31;56321;47.662;8.878;2023-04-06T10:44:07;22.75;25.17
69208;SHT31;56321;47.662;8.878;2023-04-06T10:46:33;23.31;25.27
69208;SHT31;56321;47.662;8.878;2023-04-06T10:49:10;23.98;22.40
69208;SHT31;56321;47.662;8.878;2023-04-06T10:51:39;24.72;23.96
69208;SHT31;56321;47.662;8.878;2023-04-06T10:54:08;25.23;22.21
69208;SHT31;56321;47.662;8.878;2023-04-06T10:56:37;25.65;21.17
69208;SHT31;56321;47.662;8.878;2023-04-06T10:59:03;25.86;20.57
69208;SHT31;56321;47.662;8.878;2023-04-06T11:01:30;26.07;20.28
69208;SHT31;56321;47.662;8.878;2023-04-06T11:03:57;26.10;20.22
69208;SHT31;56321;47.662;8.878;2023-04-06T11:06:26;25.97;19.56
69208;SHT31;56321;47.662;8.878;2023-04-06T11:08:54;25.76;19.94
69208;SHT31;56321;47.662;8.878;2023-04-06T11:11:22;25.58;19.92
69208;SHT31;56321;47.662;8.878;2023-04-06T11:13:59;25.31;19.68
69208;SHT31;56321;47.662;8.878;2023-04-06T11:16:31;25.34;20.14
69208;SHT31;56321;47.662;8.878;2023-04-06T11:19:01;25.26;19.46
69208;SHT31;56321;47.662;8.878;2023-04-06T11:24:30;25.13;17.96
69208;SHT31;56321;47.662;8.878;2023-04-06T11:26:57;25.24;19.75
69208;SHT31;56321;47.662;8.878;2023-04-06T11:29:28;25.00;19.17
69208;SHT31;56321;47.662;8.878;2023-04-06T11:32:04;24.90;19.89
69208;SHT31;56321;47.662;8.878;2023-04-06T11:34:32;24.75;19.57
69208;SHT31;56321;47.662;8.878;2023-04-06T11:36:59;24.59;19.93
69208;SHT31;56321;47.662;8.878;2023-04-06T11:39:26;24.72;20.35
69208;SHT31;56321;47.662;8.878;2023-04-06T11:41:58;24.87;19.64
69208;SHT31;56321;47.662;8.878;2023-04-06T11:44:42;25.04;19.06
69208;SHT31;56321;47.662;8.878;2023-04-06T11:47:11;25.14;19.62
69208;SHT31;56321;47.662;8.878;2023-04-06T11:49:38;25.06;19.77
69208;SHT31;56321;47.662;8.878;2023-04-06T11:52:18;24.82;18.99
69208;SHT31;56321;47.662;8.878;2023-04-06T11:54:44;24.69;19.62
69208;SHT31;56321;47.662;8.878;2023-04-06T11:57:10;24.51;19.84
69208;SHT31;56321;47.662;8.878;2023-04-06T11:59:35;24.18;20.13
69208;SHT31;56321;47.662;8.878;2023-04-06T12:02:02;23.77;20.45
69208;SHT31;56321;47.662;8.878;2023-04-06T12:04:28;23.33;19.89
69208;SHT31;56321;47.662;8.878;2023-04-06T12:06:54;22.87;20.09
69208;SHT31;56321;47.662;8.878;2023-04-06T12:09:20;22.33;20.94
69208;SHT31;56321;47.662;8.878;2023-04-06T12:11:46;21.89;21.00
69208;SHT31;56321;47.662;8.878;2023-04-06T12:14:12;21.41;21.96
69208;SHT31;56321;47.662;8.878;2023-04-06T12:16:37;21.02;20.94
69208;SHT31;56321;47.662;8.878;2023-04-06T12:19:03;20.65;21.42
69208;SHT31;56321;47.662;8.878;2023-04-06T12:21:30;20.30;21.74
69208;SHT31;56321;47.662;8.878;2023-04-06T12:23:59;20.12;22.38
69208;SHT31;56321;47.662;8.878;2023-04-06T12:26:25;19.96;21.77
69208;SHT31;56321;47.662;8.878;2023-04-06T12:28:50;19.80;22.50
69208;SHT31;56321;47.662;8.878;2023-04-06T12:31:17;19.73;23.16
69208;SHT31;56321;47.662;8.878;2023-04-06T12:33:42;19.66;23.29
69208;SHT31;56321;47.662;8.878;2023-04-06T12:36:18;19.62;22.59
69208;SHT31;56321;47.662;8.878;2023-04-06T12:38:46;19.48;23.18
69208;SHT31;56321;47.662;8.878;2023-04-06T12:41:12;19.36;23.89
69208;SHT31;56321;47.662;8.878;2023-04-06T12:43:41;19.32;23.29
69208;SHT31;56321;47.662;8.878;2023-04-06T12:46:07;19.22;23.65
69208;SHT31;56321;47.662;8.878;2023-04-06T12:48:33;19.11;24.01
69208;SHT31;56321;47.662;8.878;2023-04-06T12:51:01;18.99;24.34
69208;SHT31;56321;47.662;8.878;2023-04-06T12:53:27;18.92;24.01
69208;SHT31;56321;47.662;8.878;2023-04-06T12:55:54;18.72;24.03
69208;SHT31;56321;47.662;8.878;2023-04-06T12:58:20;18.51;24.44
69208;SHT31;56321;47.662;8.878;2023-04-06T13:00:46;18.38;24.71
69208;SHT31;56321;47.662;8.878;2023-04-06T13:03:12;18.28;24.65
69208;SHT31;56321;47.662;8.878;2023-04-06T13:05:43;18.12;24.61
69208;SHT31;56321;47.662;8.878;2023-04-06T13:08:09;17.98;24.92
69208;SHT31;56321;47.662;8.878;2023-04-06T13:10:35;17.87;25.03
69208;SHT31;56321;47.662;8.878;2023-04-06T13:13:00;17.83;25.59
69208;SHT31;56321;47.662;8.878;2023-04-06T13:15:25;17.74;26.01
69208;SHT31;56321;47.662;8.878;2023-04-06T13:17:51;17.67;25.92
69208;SHT31;56321;47.662;8.878;2023-04-06T13:20:16;17.69;25.87
69208;SHT31;56321;47.662;8.878;2023-04-06T13:22:42;17.67;25.86
69208;SHT31;56321;47.662;8.878;2023-04-06T13:25:07;17.63;25.89
69208;SHT31;56321;47.662;8.878;2023-04-06T13:27:33;17.57;26.14
69208;SHT31;56321;47.662;8.878;2023-04-06T13:30:00;17.57;26.35
69208;SHT31;56321;47.662;8.878;2023-04-06T13:32:26;17.63;26.91
69208;SHT31;56321;47.662;8.878;2023-04-06T13:34:54;17.66;26.29
69208;SHT31;56321;47.662;8.878;2023-04-06T13:37:19;17.76;26.92
69208;SHT31;56321;47.662;8.878;2023-04-06T13:39:45;17.86;27.15
69208;SHT31;56321;47.662;8.878;2023-04-06T13:42:10;18.01;26.74
69208;SHT31;56321;47.662;8.878;2023-04-06T13:44:35;18.07;26.79
69208;SHT31;56321;47.662;8.878;2023-04-06T13:47:01;18.07;26.49
69208;SHT31;56321;47.662;8.878;2023-04-06T13:49:26;18.01;26.14
69208;SHT31;56321;47.662;8.878;2023-04-06T13:51:52;17.94;26.30
69208;SHT31;56321;47.662;8.878;2023-04-06T13:54:17;17.86;26.27
69208;SHT31;56321;47.662;8.878;2023-04-06T13:56:42;17.84;26.10
69208;SHT31;56321;47.662;8.878;2023-04-06T13:59:08;17.76;26.49
69208;SHT31;56321;47.662;8.878;2023-04-06T14:01:33;17.76;26.92
69208;SHT31;56321;47.662;8.878;2023-04-06T14:03:58;17.70;26.71
69208;SHT31;56321;47.662;8.878;2023-04-06T14:06:24;17.65;26.43
69208;SHT31;56321;47.662;8.878;2023-04-06T14:08:49;17.57;26.88
69208;SHT31;56321;47.662;8.878;2023-04-06T14:11:15;17.50;26.53
69208;SHT31;56321;47.662;8.878;2023-04-06T14:13:41;17.46;26.28
69208;SHT31;56321;47.662;8.878;2023-04-06T14:16:07;17.38;26.29
69208;SHT31;56321;47.662;8.878;2023-04-06T14:18:33;17.31;26.14
69208;SHT31;56321;47.662;8.878;2023-04-06T14:20:59;17.21;26.21
69208;SHT31;56321;47.662;8.878;2023-04-06T14:23:27;17.15;27.21
69208;SHT31;56321;47.662;8.878;2023-04-06T14:26:03;17.10;26.70
69208;SHT31;56321;47.662;8.878;2023-04-06T14:28:30;17.02;26.40
69208;SHT31;56321;47.662;8.878;2023-04-06T14:30:56;16.85;26.62
69208;SHT31;56321;47.662;8.878;2023-04-06T14:33:21;16.75;27.40
69208;SHT31;56321;47.662;8.878;2023-04-06T14:35:47;16.71;27.41
69208;SHT31;56321;47.662;8.878;2023-04-06T14:38:12;16.59;26.95
69208;SHT31;56321;47.662;8.878;2023-04-06T14:40:37;16.52;27.80
69208;SHT31;56321;47.662;8.878;2023-04-06T14:43:03;16.42;27.69
69208;SHT31;56321;47.662;8.878;2023-04-06T14:45:29;16.34;27.25
69208;SHT31;56321;47.662;8.878;2023-04-06T14:47:54;16.15;27.37
69208;SHT31;56321;47.662;8.878;2023-04-06T14:50:20;16.04;27.45
69208;SHT31;56321;47.662;8.878;2023-04-06T14:52:45;16.01;27.52
69208;SHT31;56321;47.662;8.878;2023-04-06T14:55:12;16.01;27.39
69208;SHT31;56321;47.662;8.878;2023-04-06T14:57:37;15.97;27.23
69208;SHT31;56321;47.662;8.878;2023-04-06T15:00:02;15.99;27.14
69208;SHT31;56321;47.662;8.878;2023-04-06T15:02:28;16.01;27.82
69208;SHT31;56321;47.662;8.878;2023-04-06T15:04:53;16.04;27.63
69208;SHT31;56321;47.662;8.878;2023-04-06T15:07:19;16.01;27.42
69208;SHT31;56321;47.662;8.878;2023-04-06T15:09:44;15.95;27.71
69208;SHT31;56321;47.662;8.878;2023-04-06T15:12:09;15.98;27.76
69208;SHT31;56321;47.662;8.878;2023-04-06T15:14:35;16.04;27.77
69208;SHT31;56321;47.662;8.878;2023-04-06T15:17:00;16.06;27.90
69208;SHT31;56321;47.662;8.878;2023-04-06T15:19:25;16.12;27.41
69208;SHT31;56321;47.662;8.878;2023-04-06T15:21:51;16.13;27.24
69208;SHT31;56321;47.662;8.878;2023-04-06T15:24:17;16.13;27.01
69208;SHT31;56321;47.662;8.878;2023-04-06T15:26:42;16.09;27.08
69208;SHT31;56321;47.662;8.878;2023-04-06T15:29:07;16.02;26.94
69208;SHT31;56321;47.662;8.878;2023-04-06T15:31:33;15.97;26.67
69208;SHT31;56321;47.662;8.878;2023-04-06T15:33:59;15.88;27.23
69208;SHT31;56321;47.662;8.878;2023-04-06T15:36:27;15.85;27.38